Garnett, South Carolina
Current Conditions -  °F | °C
As of 3:55 PM on Saturday 25 Oct 2014 (Local Time) from KJYL Reporting Station
Clear Clear  
Wind Chill: 82°   Ceiling: Unl
Heat Index: 82°   Visibility: 10mi
Dew Point: 51°   Wind: 6mph
Humidity: 34%   Direction: 320°NW
Pressure: 29.98"   Gusts: NA
Location:  32.61°N, 81.24°W
Report Text: KJYL 251955Z AUTO 32005KT 10SM CLR 28/11 A2998 RMK AO2 T02770106
Loading
Personal Weather Stations






























Interactive Weather Map
Tropical Storm Tracking
New forecast layout! Learn more

10-Day Weather Forecast

Advertisements
Track Severe Weather on mobile